createdAt,value
2022-08-10T00:00:58.645Z,16.60
2022-08-10T00:03:26.565Z,16.60
2022-08-10T00:05:56.565Z,16.40
2022-08-10T00:08:26.128Z,16.40
2022-08-10T00:10:55.549Z,16.40
2022-08-10T00:13:24.688Z,16.40
2022-08-10T00:15:55.198Z,16.30
2022-08-10T00:18:34.922Z,16.30
2022-08-10T00:21:05.453Z,16.20
2022-08-10T00:23:33.494Z,16.10
2022-08-10T00:26:01.661Z,16.10
2022-08-10T00:28:30.196Z,16.00
2022-08-10T00:30:58.254Z,16.00
2022-08-10T00:33:27.510Z,16.00
2022-08-10T00:35:55.459Z,15.90
2022-08-10T00:38:23.462Z,15.90
2022-08-10T00:40:51.501Z,16.00
2022-08-10T00:43:23.314Z,15.90
2022-08-10T00:45:59.771Z,15.90
2022-08-10T00:48:30.749Z,15.90
2022-08-10T00:50:59.994Z,15.90
2022-08-10T00:53:28.637Z,15.90
2022-08-10T00:57:14.948Z,15.90
2022-08-10T00:58:46.685Z,15.90
2022-08-10T01:02:09.205Z,15.80
2022-08-10T01:04:54.402Z,15.80
2022-08-10T01:07:02.672Z,15.80
2022-08-10T01:09:36.308Z,15.80
2022-08-10T01:12:38.597Z,15.80
2022-08-10T01:15:09.254Z,15.90
2022-08-10T01:17:50.421Z,16.00
2022-08-10T01:20:31.256Z,16.00
2022-08-10T01:23:26.977Z,15.90
2022-08-10T01:26:31.510Z,15.90
2022-08-10T01:29:17.256Z,15.90
2022-08-10T01:31:52.374Z,15.80
2022-08-10T01:34:25.105Z,15.70
2022-08-10T01:37:00.637Z,15.70
2022-08-10T01:39:37.922Z,15.70
2022-08-10T01:42:07.433Z,15.70
2022-08-10T01:44:39.122Z,15.70
2022-08-10T01:47:30.088Z,15.70
2022-08-10T01:50:03.314Z,15.70
2022-08-10T01:52:33.193Z,15.70
2022-08-10T01:55:01.330Z,15.70
2022-08-10T01:57:31.561Z,15.60
2022-08-10T02:00:03.308Z,15.60
2022-08-10T02:02:35.932Z,15.70
2022-08-10T02:05:07.121Z,15.60
2022-08-10T02:07:37.875Z,15.70
2022-08-10T02:10:12.294Z,15.70
2022-08-10T02:12:42.071Z,15.60
2022-08-10T02:15:14.358Z,15.60
2022-08-10T02:18:00.668Z,15.50
2022-08-10T02:20:35.214Z,15.50
2022-08-10T02:23:06.382Z,15.40
2022-08-10T02:25:41.673Z,15.20
2022-08-10T02:28:30.032Z,15.30
2022-08-10T02:31:02.466Z,15.20
2022-08-10T02:33:37.279Z,15.00
2022-08-10T02:36:08.593Z,15.00
2022-08-10T02:38:59.421Z,15.10
2022-08-10T02:45:12.999Z,15.00
2022-08-10T02:45:20.594Z,15.00
2022-08-10T02:47:22.999Z,14.90
2022-08-10T02:50:00.861Z,15.00
2022-08-10T02:52:36.276Z,15.00
2022-08-10T02:55:17.295Z,15.00
2022-08-10T02:58:12.534Z,14.90
2022-08-10T03:00:44.197Z,15.00
2022-08-10T03:03:21.122Z,14.90
2022-08-10T03:05:55.451Z,14.80
2022-08-10T03:08:28.455Z,14.90
2022-08-10T03:11:00.134Z,14.90
2022-08-10T03:13:29.513Z,15.00
2022-08-10T03:15:58.594Z,15.00
2022-08-10T03:18:27.308Z,14.90
2022-08-10T03:20:58.173Z,14.80
2022-08-10T03:23:28.085Z,15.00
2022-08-10T03:25:58.499Z,14.90
2022-08-10T03:28:28.936Z,14.80
2022-08-10T03:30:58.522Z,14.70
2022-08-10T03:33:30.141Z,14.70
2022-08-10T03:36:41.334Z,14.60
2022-08-10T03:38:51.545Z,14.60
2022-08-10T03:41:22.590Z,14.60
2022-08-10T03:43:52.486Z,14.60
2022-08-10T03:46:23.041Z,14.50
2022-08-10T03:48:54.035Z,14.60
2022-08-10T03:51:24.049Z,14.60
2022-08-10T03:54:05.889Z,14.60
2022-08-10T03:56:37.664Z,14.60
2022-08-10T03:59:07.188Z,14.60
2022-08-10T04:02:44.919Z,14.50
2022-08-10T04:04:25.612Z,14.40
2022-08-10T04:06:57.720Z,14.40
2022-08-10T04:09:43.143Z,14.30
2022-08-10T04:12:16.004Z,14.30
2022-08-10T04:14:49.691Z,14.10
2022-08-10T04:17:57.136Z,14.10
2022-08-10T04:20:14.605Z,14.20
2022-08-10T04:22:45.667Z,14.30
2022-08-10T04:25:16.150Z,14.40
2022-08-10T04:27:44.979Z,14.50
2022-08-10T04:30:13.444Z,14.70
2022-08-10T04:32:42.820Z,14.80
2022-08-10T04:35:12.043Z,14.90
2022-08-10T04:37:47.198Z,15.00
2022-08-10T04:40:25.221Z,15.20
2022-08-10T04:43:01.231Z,15.40
2022-08-10T04:45:49.612Z,15.60
2022-08-10T04:48:43.092Z,15.90
2022-08-10T04:51:07.895Z,16.20
2022-08-10T04:54:04.441Z,16.70
2022-08-10T04:56:31.565Z,17.00
2022-08-10T04:59:00.504Z,17.40
2022-08-10T05:02:12.477Z,17.60
2022-08-10T05:04:37.031Z,17.70
2022-08-10T05:07:04.482Z,18.00
2022-08-10T05:09:32.396Z,18.30
2022-08-10T05:12:01.661Z,18.70
2022-08-10T05:14:29.568Z,19.10
2022-08-10T05:16:57.516Z,19.30
2022-08-10T05:20:01.873Z,19.50
2022-08-10T05:22:14.065Z,19.70
2022-08-10T05:24:42.133Z,19.90
2022-08-10T05:27:11.534Z,20.10
2022-08-10T05:29:39.633Z,20.20
2022-08-10T05:32:07.675Z,20.40
2022-08-10T05:34:36.075Z,20.60
2022-08-10T05:37:05.237Z,20.80
2022-08-10T05:39:34.601Z,21.20
2022-08-10T05:42:03.923Z,21.40
2022-08-10T05:44:33.718Z,21.50
2022-08-10T05:47:01.767Z,21.70
2022-08-10T05:49:29.680Z,21.90
2022-08-10T05:51:57.658Z,22.10
2022-08-10T05:54:26.943Z,22.40
2022-08-10T05:56:58.231Z,22.60
2022-08-10T06:00:31.132Z,22.80
2022-08-10T06:02:31.873Z,23.00
2022-08-10T06:05:06.784Z,23.40
2022-08-10T06:07:38.129Z,23.70
2022-08-10T06:10:10.150Z,23.90
2022-08-10T06:12:55.149Z,24.20
2022-08-10T06:15:50.536Z,24.50
2022-08-10T06:18:16.275Z,24.80
2022-08-10T06:20:46.573Z,25.10
2022-08-10T06:23:15.287Z,25.30
2022-08-10T06:26:11.889Z,25.50
2022-08-10T06:28:34.750Z,25.80
2022-08-10T06:31:05.235Z,26.00
2022-08-10T06:33:37.812Z,26.00
2022-08-10T06:36:08.435Z,25.80
2022-08-10T06:38:39.122Z,25.40
2022-08-10T06:41:18.002Z,25.40
2022-08-10T06:43:54.775Z,25.50
2022-08-10T06:46:24.389Z,25.80
2022-08-10T06:48:56.022Z,25.90
2022-08-10T06:51:26.969Z,26.10
2022-08-10T06:53:58.030Z,26.00
2022-08-10T06:56:37.650Z,26.20
2022-08-10T06:59:21.462Z,26.00
2022-08-10T07:01:55.355Z,26.20
2022-08-10T07:04:32.478Z,26.30
2022-08-10T07:07:04.936Z,26.50
2022-08-10T07:09:36.153Z,26.50
2022-08-10T07:12:07.796Z,26.70
2022-08-10T07:14:39.743Z,26.90
2022-08-10T07:17:15.699Z,27.20
2022-08-10T07:19:49.510Z,27.30
2022-08-10T07:23:01.546Z,27.30
2022-08-10T07:25:12.154Z,27.50
2022-08-10T07:27:59.668Z,27.70
2022-08-10T07:30:31.633Z,27.90
2022-08-10T07:33:03.117Z,28.00
2022-08-10T07:35:42.219Z,28.20
2022-08-10T07:38:17.052Z,28.30
2022-08-10T07:40:46.312Z,28.40
2022-08-10T07:43:15.143Z,28.20
2022-08-10T07:45:43.069Z,28.40
2022-08-10T07:48:15.996Z,28.40
2022-08-10T07:50:47.080Z,28.20
2022-08-10T07:53:21.264Z,28.30
2022-08-10T07:56:05.846Z,28.40
2022-08-10T07:58:48.337Z,28.60
2022-08-10T08:01:24.059Z,28.80
2022-08-10T08:04:05.047Z,29.10
2022-08-10T08:06:41.909Z,29.50
2022-08-10T08:09:10.911Z,29.60
2022-08-10T08:11:40.707Z,30.00
2022-08-10T08:14:09.808Z,30.40
2022-08-10T08:16:41.222Z,30.60
2022-08-10T08:19:26.761Z,30.80
2022-08-10T08:24:05.629Z,30.80
2022-08-10T08:24:47.913Z,30.80
2022-08-10T08:27:21.457Z,30.90
2022-08-10T08:29:51.624Z,30.90
2022-08-10T08:32:23.542Z,31.00
2022-08-10T08:34:55.425Z,30.90
2022-08-10T08:38:33.911Z,30.70
2022-08-10T08:40:25.175Z,30.70
2022-08-10T08:43:09.907Z,30.80
2022-08-10T08:46:01.032Z,31.00
2022-08-10T08:48:56.306Z,31.00
2022-08-10T08:52:12.493Z,31.50
2022-08-10T08:54:45.899Z,31.40
2022-08-10T08:57:49.549Z,31.10
2022-08-10T09:00:19.645Z,31.20
2022-08-10T09:03:11.496Z,31.60
2022-08-10T09:05:59.865Z,31.50
2022-08-10T09:09:01.836Z,31.70
2022-08-10T09:11:42.083Z,31.70
2022-08-10T09:14:16.569Z,32.20
2022-08-10T09:17:00.307Z,32.20
2022-08-10T09:19:35.361Z,32.50
2022-08-10T09:22:18.400Z,32.80
2022-08-10T09:24:53.062Z,31.50
2022-08-10T09:27:30.483Z,30.50
2022-08-10T09:30:06.581Z,29.90
2022-08-10T09:36:16.856Z,30.30
2022-08-10T09:36:19.793Z,30.80
2022-08-10T09:38:37.075Z,31.00
2022-08-10T09:41:17.351Z,31.10
2022-08-10T09:43:53.320Z,31.50
2022-08-10T09:46:40.929Z,31.80
2022-08-10T09:49:18.341Z,31.90
2022-08-10T09:51:53.821Z,32.00
2022-08-10T09:54:37.182Z,31.80
2022-08-10T10:00:10.629Z,31.90
2022-08-10T10:02:52.479Z,32.40
2022-08-10T10:05:30.771Z,32.30
2022-08-10T10:08:06.966Z,32.70
2022-08-10T10:10:47.537Z,32.80
2022-08-10T10:14:01.791Z,32.80
2022-08-10T10:16:24.580Z,33.00
2022-08-10T10:19:05.390Z,33.00
2022-08-10T10:21:54.478Z,33.40
2022-08-10T10:24:35.103Z,33.00
2022-08-10T10:27:16.206Z,32.80
2022-08-10T10:29:57.901Z,32.10
2022-08-10T10:32:39.360Z,32.00
2022-08-10T10:35:23.472Z,32.00
2022-08-10T10:38:00.651Z,32.50
2022-08-10T10:40:41.336Z,32.50
2022-08-10T10:43:21.605Z,32.50
2022-08-10T10:46:03.094Z,32.10
2022-08-10T10:48:41.251Z,32.10
2022-08-10T10:51:17.411Z,32.70
2022-08-10T10:53:50.763Z,33.10
2022-08-10T10:56:27.477Z,32.50
2022-08-10T10:59:33.421Z,32.30
2022-08-10T11:02:02.124Z,32.10
2022-08-10T11:04:43.506Z,31.00
2022-08-10T11:07:17.857Z,30.60
2022-08-10T11:10:03.184Z,31.10
2022-08-10T11:12:40.787Z,31.50
2022-08-10T11:15:22.362Z,31.40
2022-08-10T11:17:53.632Z,31.40
2022-08-10T11:20:27.690Z,31.40
2022-08-10T11:23:04.105Z,31.80
2022-08-10T11:25:37.195Z,32.30
2022-08-10T11:28:13.875Z,32.40
2022-08-10T11:30:46.920Z,32.90
2022-08-10T11:33:30.803Z,33.20
2022-08-10T11:36:06.131Z,33.40
2022-08-10T11:39:03.956Z,33.50
2022-08-10T11:42:09.500Z,33.50
2022-08-10T11:44:31.024Z,33.40
2022-08-10T11:47:04.041Z,33.00
2022-08-10T11:49:36.775Z,32.80
2022-08-10T11:52:11.521Z,32.90
2022-08-10T11:54:43.638Z,33.00
2022-08-10T11:57:13.430Z,33.50
2022-08-10T11:59:59.253Z,33.90
2022-08-10T12:02:33.519Z,34.30
2022-08-10T12:05:07.571Z,33.60
2022-08-10T12:10:04.572Z,32.50
2022-08-10T12:10:31.532Z,31.40
2022-08-10T12:13:05.845Z,30.90
2022-08-10T12:15:37.787Z,31.20
2022-08-10T12:18:13.588Z,31.70
2022-08-10T12:20:44.480Z,32.10
2022-08-10T12:23:26.734Z,32.80
2022-08-10T12:26:07.439Z,32.50
2022-08-10T12:28:51.489Z,32.50
2022-08-10T12:31:26.030Z,32.60
2022-08-10T12:34:06.222Z,32.90
2022-08-10T12:36:40.767Z,33.10
2022-08-10T12:39:15.897Z,33.70
2022-08-10T12:41:50.614Z,34.30
2022-08-10T12:44:41.040Z,33.80
2022-08-10T12:47:18.679Z,33.80
2022-08-10T12:50:31.148Z,33.60
2022-08-10T12:52:51.052Z,32.50
2022-08-10T12:55:22.014Z,31.50
2022-08-10T12:57:53.310Z,31.10
2022-08-10T13:00:27.001Z,30.90
2022-08-10T13:02:55.687Z,30.90
2022-08-10T13:05:27.207Z,31.00
2022-08-10T13:08:26.909Z,31.70
2022-08-10T13:11:03.375Z,32.70
2022-08-10T13:13:35.703Z,33.20
2022-08-10T13:16:04.831Z,33.10
2022-08-10T13:18:37.841Z,32.10
2022-08-10T13:21:20.354Z,31.30
2022-08-10T13:24:04.479Z,31.00
2022-08-10T13:26:38.383Z,31.00
2022-08-10T13:29:33.201Z,31.00
2022-08-10T13:32:10.658Z,30.80
2022-08-10T13:34:45.640Z,30.30
2022-08-10T13:37:16.988Z,30.50
2022-08-10T13:39:59.589Z,31.00
2022-08-10T13:42:34.701Z,31.60
2022-08-10T13:45:09.103Z,32.10
2022-08-10T13:47:48.494Z,32.00
2022-08-10T13:50:33.108Z,31.80
2022-08-10T13:53:11.632Z,31.20
2022-08-10T13:55:54.197Z,30.80
2022-08-10T13:58:27.456Z,30.60
2022-08-10T14:00:58.953Z,30.20
2022-08-10T14:03:28.290Z,30.10
2022-08-10T14:05:58.587Z,30.40
2022-08-10T14:08:30.037Z,30.90
2022-08-10T14:11:10.911Z,31.30
2022-08-10T14:13:45.379Z,31.30
2022-08-10T14:16:14.324Z,31.30
2022-08-10T14:18:45.084Z,31.40
2022-08-10T14:21:13.960Z,31.20
2022-08-10T14:23:53.320Z,31.30
2022-08-10T14:26:25.092Z,31.20
2022-08-10T14:28:58.072Z,30.80
2022-08-10T14:31:33.658Z,30.30
2022-08-10T14:34:05.380Z,30.30
2022-08-10T14:36:40.711Z,30.70
2022-08-10T14:39:09.891Z,31.00
2022-08-10T14:42:01.178Z,31.10
2022-08-10T14:44:31.429Z,31.00
2022-08-10T14:47:51.364Z,31.00
2022-08-10T14:49:58.292Z,31.00
2022-08-10T14:52:28.354Z,31.10
2022-08-10T14:54:58.011Z,31.00
2022-08-10T14:58:16.620Z,30.70
2022-08-10T15:00:33.829Z,30.80
2022-08-10T15:03:11.284Z,30.70
2022-08-10T15:05:59.150Z,30.60
2022-08-10T15:08:30.328Z,30.60
2022-08-10T15:11:06.099Z,30.50
2022-08-10T15:13:35.519Z,30.40
2022-08-10T15:16:12.858Z,30.10
2022-08-10T15:18:58.592Z,30.10
2022-08-10T15:21:37.856Z,29.90
2022-08-10T15:24:15.652Z,29.90
2022-08-10T15:26:57.468Z,29.80
2022-08-10T15:29:27.522Z,29.70
2022-08-10T15:32:14.359Z,29.50
2022-08-10T15:35:02.287Z,29.50
2022-08-10T15:37:39.781Z,29.50
2022-08-10T15:40:21.478Z,29.40
2022-08-10T15:43:00.028Z,29.40
2022-08-10T15:45:28.503Z,29.30
2022-08-10T15:48:04.039Z,29.10
2022-08-10T15:50:39.890Z,28.90
2022-08-10T15:53:16.460Z,28.80
2022-08-10T15:55:51.521Z,28.90
2022-08-10T15:58:38.794Z,28.90
2022-08-10T16:02:13.522Z,28.90
2022-08-10T16:04:08.436Z,28.70
2022-08-10T16:06:42.619Z,28.60
2022-08-10T16:10:26.705Z,28.60
2022-08-10T16:12:13.586Z,28.50
2022-08-10T16:14:46.127Z,28.40
2022-08-10T16:17:15.188Z,28.40
2022-08-10T16:19:50.698Z,28.30
2022-08-10T16:22:36.551Z,28.20
2022-08-10T16:25:13.270Z,28.00
2022-08-10T16:27:43.985Z,28.00
2022-08-10T16:30:13.149Z,27.90
2022-08-10T16:32:42.680Z,27.90
2022-08-10T16:35:18.579Z,27.90
2022-08-10T16:37:58.970Z,27.80
2022-08-10T16:40:30.104Z,27.80
2022-08-10T16:43:00.843Z,27.80
2022-08-10T16:45:35.489Z,27.80
2022-08-10T16:48:06.908Z,27.70
2022-08-10T16:50:41.701Z,27.70
2022-08-10T16:53:13.597Z,27.60
2022-08-10T16:55:50.145Z,27.50
2022-08-10T16:58:27.214Z,27.50
2022-08-10T17:01:01.593Z,27.40
2022-08-10T17:04:08.632Z,27.40
2022-08-10T17:06:27.669Z,27.30
2022-08-10T17:08:59.339Z,27.30
2022-08-10T17:11:31.138Z,27.30
2022-08-10T17:14:00.333Z,27.20
2022-08-10T17:16:35.463Z,27.20
2022-08-10T17:19:04.519Z,27.10
2022-08-10T17:21:51.925Z,27.00
2022-08-10T17:24:23.822Z,27.00
2022-08-10T17:26:52.869Z,26.90
2022-08-10T17:29:59.226Z,27.00
2022-08-10T17:32:21.544Z,26.90
2022-08-10T17:34:54.042Z,26.90
2022-08-10T17:37:26.737Z,26.90
2022-08-10T17:39:59.180Z,26.80
2022-08-10T17:42:27.977Z,26.70
2022-08-10T17:44:56.843Z,26.70
2022-08-10T17:47:27.626Z,26.60
2022-08-10T17:49:57.915Z,26.60
2022-08-10T17:52:31.006Z,26.60
2022-08-10T17:55:02.548Z,26.50
2022-08-10T17:57:37.041Z,26.40
2022-08-10T18:00:10.664Z,26.40
2022-08-10T18:02:41.652Z,26.40
2022-08-10T18:05:11.086Z,26.40
2022-08-10T18:07:46.478Z,26.30
2022-08-10T18:10:18.391Z,26.30
2022-08-10T18:12:48.440Z,26.20
2022-08-10T18:15:22.087Z,26.10
2022-08-10T18:17:58.316Z,26.00
2022-08-10T18:20:34.970Z,25.90
2022-08-10T18:23:05.865Z,25.80
2022-08-10T18:25:37.368Z,25.80
2022-08-10T18:28:11.768Z,25.70
2022-08-10T18:30:48.001Z,25.60
2022-08-10T18:33:17.356Z,25.50
2022-08-10T18:35:47.124Z,25.40
2022-08-10T18:38:18.417Z,25.30
2022-08-10T18:40:54.038Z,25.20
2022-08-10T18:44:06.820Z,25.00
2022-08-10T18:46:18.283Z,24.80
2022-08-10T18:48:53.213Z,24.60
2022-08-10T18:51:25.964Z,24.40
2022-08-10T18:54:02.417Z,24.20
2022-08-10T18:56:49.518Z,24.10
2022-08-10T18:59:33.910Z,23.90
2022-08-10T19:02:17.595Z,23.70
2022-08-10T19:05:00.299Z,23.60
2022-08-10T19:07:44.853Z,23.40
2022-08-10T19:10:29.133Z,23.30
2022-08-10T19:13:09.389Z,23.20
2022-08-10T19:15:45.582Z,23.00
2022-08-10T19:18:23.761Z,22.90
2022-08-10T19:20:56.358Z,22.80
2022-08-10T19:23:38.649Z,22.70
2022-08-10T19:26:44.181Z,22.60
2022-08-10T19:30:01.105Z,22.50
2022-08-10T19:32:20.266Z,22.30
2022-08-10T19:35:03.618Z,22.20
2022-08-10T19:37:40.825Z,22.20
2022-08-10T19:40:21.505Z,22.00
2022-08-10T19:43:30.772Z,21.80
2022-08-10T19:46:13.463Z,21.60
2022-08-10T19:48:48.536Z,21.30
2022-08-10T19:51:21.820Z,21.00
2022-08-10T19:53:58.540Z,20.70
2022-08-10T19:56:36.758Z,20.60
2022-08-10T19:59:17.605Z,20.70
2022-08-10T20:02:07.450Z,20.60
2022-08-10T20:04:45.408Z,20.60
2022-08-10T20:07:19.955Z,20.60
2022-08-10T20:09:56.640Z,20.60
2022-08-10T20:12:38.162Z,20.60
2022-08-10T20:15:12.751Z,20.50
2022-08-10T20:17:52.992Z,20.20
2022-08-10T20:20:31.268Z,20.10
2022-08-10T20:23:09.364Z,19.90
2022-08-10T20:25:37.477Z,19.70
2022-08-10T20:28:16.144Z,19.50
2022-08-10T20:30:50.069Z,19.30
2022-08-10T20:33:23.225Z,19.20
2022-08-10T20:35:57.246Z,19.10
2022-08-10T20:38:30.751Z,19.00
2022-08-10T20:41:07.076Z,18.90
2022-08-10T20:43:41.830Z,18.80
2022-08-10T20:46:21.984Z,18.70
2022-08-10T20:49:00.191Z,18.60
2022-08-10T20:51:59.549Z,18.60
2022-08-10T20:54:30.444Z,18.50
2022-08-10T20:57:53.540Z,18.50
2022-08-10T21:00:12.922Z,18.50
2022-08-10T21:03:06.949Z,18.50
2022-08-10T21:05:45.730Z,18.30
2022-08-10T21:08:19.804Z,18.30
2022-08-10T21:11:02.887Z,18.20
2022-08-10T21:13:48.516Z,18.10
2022-08-10T21:16:30.826Z,18.00
2022-08-10T21:19:30.083Z,18.00
2022-08-10T21:22:12.465Z,18.00
2022-08-10T21:24:52.327Z,18.10
2022-08-10T21:27:49.105Z,18.20
2022-08-10T21:30:34.737Z,18.20
2022-08-10T21:33:09.198Z,18.10
2022-08-10T21:35:43.108Z,18.10
2022-08-10T21:38:21.563Z,18.00
2022-08-10T21:41:58.249Z,18.00
2022-08-10T21:44:52.757Z,18.00
2022-08-10T21:48:17.695Z,17.90
2022-08-10T21:51:16.334Z,17.80
2022-08-10T21:54:22.355Z,17.70
2022-08-10T21:57:19.905Z,17.70
2022-08-10T22:00:11.115Z,17.50
2022-08-10T22:02:58.222Z,17.50
2022-08-10T22:05:46.811Z,17.50
2022-08-10T22:08:37.141Z,17.40
2022-08-10T22:11:25.118Z,17.30
2022-08-10T22:14:12.651Z,17.30
2022-08-10T22:17:04.597Z,17.30
2022-08-10T22:19:53.636Z,17.40
2022-08-10T22:22:56.144Z,17.40
2022-08-10T22:25:56.889Z,17.30
2022-08-10T22:28:48.657Z,17.30
2022-08-10T22:31:52.839Z,17.20
2022-08-10T22:35:19.809Z,17.30
2022-08-10T22:38:15.373Z,17.10
2022-08-10T22:41:05.149Z,16.90
2022-08-10T22:43:53.414Z,16.80
2022-08-10T22:46:42.539Z,16.70
2022-08-10T22:49:10.200Z,16.70
2022-08-10T22:51:48.480Z,16.60
2022-08-10T22:54:38.934Z,16.50
2022-08-10T22:57:31.562Z,16.50
2022-08-10T23:00:00.082Z,16.40
2022-08-10T23:02:32.966Z,16.50
2022-08-10T23:05:08.842Z,16.60
2022-08-10T23:07:43.644Z,16.80
2022-08-10T23:10:13.864Z,16.80
2022-08-10T23:12:50.640Z,16.80
2022-08-10T23:15:41.109Z,16.60
2022-08-10T23:18:32.663Z,16.50
2022-08-10T23:21:02.485Z,16.50
2022-08-10T23:23:37.546Z,16.40
2022-08-10T23:26:07.268Z,16.40
2022-08-10T23:28:58.199Z,16.30
2022-08-10T23:32:00.793Z,16.20
2022-08-10T23:34:22.600Z,16.20
2022-08-10T23:36:52.885Z,16.00
2022-08-10T23:39:27.004Z,16.00
2022-08-10T23:42:07.047Z,16.00
2022-08-10T23:44:42.495Z,16.00
2022-08-10T23:47:13.450Z,16.00
2022-08-10T23:49:43.209Z,15.90
2022-08-10T23:52:13.855Z,16.00
2022-08-10T23:54:48.706Z,16.00
2022-08-10T23:57:21.760Z,16.00
2022-08-10T23:59:56.700Z,15.90
